Pasadena, TX (77504)

11:00 AM CDT on July 24, 2014 (GMT -0500)
Ellington (KEFD) Elev 33 ft | 29.61 °N, 95.16 °W | Change Station

Current weather conditions updated 10 minutes ago

Haze
Haze
90 °F
Feels Like 105 °F
N
4
Wind Variable Wind from ENE

Today is forecast to be Cooler than yesterday. Scattered thunderstorms possible.

Today
High -- | Low -- °F
--% Chance of Precip.
Yesterday
High -- | Low -- °F
Precip. -- in
6:35 AM 8:18 PM
Waning Crescent, 5% visible
Pressure 30.05 in
Visibility 5.0 miles
Clouds Mostly Cloudy 1800 ft
Mostly Cloudy 5000 ft
Heat Index 105 °F
Dew Point 79 °F
Humidity 70%
Rainfall 0.00 in
Snow Depth Not available.
UV 4 out of 12
Pollen 3.10 out of 12
Ozone Good
PM2.5 Moderate
Flu Activity Not available.
METAR KEFD 241550Z 07003KT 5SM HZ BKN018 BKN050 32/26 A3005

More Conditions Fewer Conditions

Pressure 30.05 in
Visibility 5.0 miles
Clouds Mostly Cloudy 1800 ft
Mostly Cloudy 5000 ft
Heat Index 105 °F
Dew Point 79 °F
Humidity 70%
Rainfall 0.00 in
Snow Depth Not available.
UV 4 out of 12
Pollen 3.10 out of 12
Ozone Good
PM2.5 Moderate
Flu Activity Not available.
METAR KEFD 241550Z 07003KT 5SM HZ BKN018 BKN050 32/26 A3005

More Conditions Fewer Conditions

10-Day Weather Forecast

Almanac

Astronomy

Jul. 24, 2014 Rise Set
Actual Time 6:35 AM CDT 8:18 PM CDT
Civil Twilight 6:09 AM CDT 8:44 PM CDT
Nautical Twilight 5:37 AM CDT 9:16 PM CDT
Astronomical Twilight 5:04 AM CDT 9:49 PM CDT
Moon 4:42 AM CDT 6:36 PM CDT
Length of Visible Light 14h 35m
Length of Day
13h 42m
Tomorrow will be 1m 9s shorter.
Waning Crescent, 5% of the Moon is Illuminated
Today
Waning Crescent
Jul 26
New
Aug 3
First Quarter
Aug 10
Full
Aug 17
Last Quarter

Today's Extremes

State Highs State Lows

Community

WunderPhotos

Upload Photos

1,737,055 photos uploaded!

Nearby

Air Quality

  Air Quality AQ Index Pollutant
Yesterday Moderate
OZONE
Yesterday Moderate
PM2.5
Current Moderate
PM2.5
Current Good
OZONE
Thursday Unhealthy for Sensitive Groups
OZONE
Thursday Good
PM10
Friday Unhealthy for Sensitive Groups
OZONE
Friday Good
PM10
Saturday Good
OZONE
Saturday Good
PM10
Sunday Good
PM10
Sunday Good
OZONE

Snow Depth

Station Depth Elevation
No new snow has been reported.

Earthquake Activity

City Distance Mag. Time & Date
No recent earthquake activity has been reported nearby.
Minimum magnitude displayed is 2.5.

Coastal Water Temperatures

Place Temperature
Eagle Point, TX 89.1 °F
USCG Freeport, TX 86.0 °F
Galveston Pier TX 87.1 °F
Galveston Bay (North Jetty), TX 90.0 °F
Rollover Pass, TX 82.9 °F
Morgans Point, TX 91.0 °F

Nearby Weather Stations

There are no personal weather stations in this area.